createdAt,value
2018-04-06T00:01:12.991Z,2.70
2018-04-06T00:03:40.503Z,2.70
2018-04-06T00:06:08.821Z,2.70
2018-04-06T00:08:36.336Z,2.70
2018-04-06T00:11:03.867Z,2.70
2018-04-06T00:13:32.267Z,2.70
2018-04-06T00:15:59.778Z,2.70
2018-04-06T00:18:27.817Z,2.70
2018-04-06T00:20:56.103Z,2.60
2018-04-06T00:23:23.608Z,2.60
2018-04-06T00:25:51.124Z,2.60
2018-04-06T00:28:18.906Z,2.60
2018-04-06T00:30:46.439Z,2.60
2018-04-06T00:33:14.713Z,2.50
2018-04-06T00:35:42.233Z,2.50
2018-04-06T00:38:09.734Z,2.50
2018-04-06T00:40:37.235Z,2.60
2018-04-06T00:43:05.290Z,2.60
2018-04-06T00:45:32.787Z,2.40
2018-04-06T00:48:00.297Z,2.40
2018-04-06T00:50:27.807Z,2.40
2018-04-06T00:52:55.323Z,2.40
2018-04-06T00:55:22.818Z,2.40
2018-04-06T00:57:50.335Z,2.40
2018-04-06T01:00:17.851Z,2.40
2018-04-06T01:02:45.384Z,2.40
2018-04-06T01:05:12.923Z,2.40
2018-04-06T01:07:40.434Z,2.30
2018-04-06T01:10:08.015Z,2.30
2018-04-06T01:12:35.512Z,2.30
2018-04-06T01:15:03.165Z,2.30
2018-04-06T01:17:30.703Z,2.30
2018-04-06T01:19:58.235Z,2.30
2018-04-06T01:22:25.748Z,2.30
2018-04-06T01:24:53.264Z,2.30
2018-04-06T01:27:21.313Z,2.20
2018-04-06T01:29:48.843Z,2.30
2018-04-06T01:32:16.363Z,2.30
2018-04-06T01:34:43.868Z,2.20
2018-04-06T01:37:11.379Z,2.20
2018-04-06T01:39:38.873Z,2.20
2018-04-06T01:42:06.604Z,2.20
2018-04-06T01:44:34.122Z,2.20
2018-04-06T01:47:01.702Z,2.20
2018-04-06T01:49:29.228Z,2.10
2018-04-06T01:51:56.789Z,2.10
2018-04-06T01:54:25.118Z,2.10
2018-04-06T01:56:52.621Z,2.10
2018-04-06T01:59:20.975Z,2.10
2018-04-06T02:01:48.515Z,2.10
2018-04-06T02:04:16.014Z,2.10
2018-04-06T02:06:43.539Z,2.00
2018-04-06T02:09:11.051Z,2.00
2018-04-06T02:11:38.577Z,2.00
2018-04-06T02:14:07.011Z,1.90
2018-04-06T02:16:34.523Z,2.00
2018-04-06T02:19:03.128Z,2.00
2018-04-06T02:21:31.384Z,1.90
2018-04-06T02:23:59.654Z,1.80
2018-04-06T02:26:27.176Z,1.90
2018-04-06T02:28:54.702Z,1.90
2018-04-06T02:31:22.229Z,1.90
2018-04-06T02:33:49.733Z,1.90
2018-04-06T02:36:17.246Z,1.80
2018-04-06T02:38:44.759Z,1.80
2018-04-06T02:41:12.280Z,1.80
2018-04-06T02:43:39.813Z,1.70
2018-04-06T02:46:07.327Z,1.70
2018-04-06T02:48:34.878Z,1.70
2018-04-06T02:51:02.399Z,1.80
2018-04-06T02:53:30.681Z,1.80
2018-04-06T02:55:58.998Z,1.70
2018-04-06T02:58:26.523Z,1.70
2018-04-06T03:00:54.954Z,1.60
2018-04-06T03:03:22.476Z,1.60
2018-04-06T03:05:50.117Z,1.70
2018-04-06T03:08:17.673Z,1.60
2018-04-06T03:10:45.950Z,1.70
2018-04-06T03:13:14.244Z,1.70
2018-04-06T03:15:41.764Z,1.70
2018-04-06T03:18:09.273Z,1.70
2018-04-06T03:20:36.772Z,1.70
2018-04-06T03:23:04.290Z,1.70
2018-04-06T03:25:31.844Z,1.70
2018-04-06T03:27:59.580Z,1.60
2018-04-06T03:30:27.859Z,1.60
2018-04-06T03:32:55.381Z,1.60
2018-04-06T03:35:22.902Z,1.70
2018-04-06T03:37:50.403Z,1.60
2018-04-06T03:40:17.957Z,1.60
2018-04-06T03:42:45.477Z,1.60
2018-04-06T03:45:13.103Z,1.60
2018-04-06T03:47:41.406Z,1.60
2018-04-06T03:50:08.923Z,1.60
2018-04-06T03:52:36.430Z,1.60
2018-04-06T03:55:03.989Z,1.50
2018-04-06T03:57:31.504Z,1.60
2018-04-06T03:59:59.124Z,1.50
2018-04-06T04:02:26.683Z,1.50
2018-04-06T04:04:54.143Z,1.50
2018-04-06T04:07:22.780Z,1.50
2018-04-06T04:09:51.185Z,1.40
2018-04-06T04:12:18.827Z,1.40
2018-04-06T04:14:46.353Z,1.40
2018-04-06T04:17:13.874Z,1.40
2018-04-06T04:19:41.382Z,1.40
2018-04-06T04:22:08.909Z,1.40
2018-04-06T04:24:36.443Z,1.40
2018-04-06T04:27:03.961Z,1.40
2018-04-06T04:29:32.262Z,1.40
2018-04-06T04:31:59.788Z,1.40
2018-04-06T04:34:27.350Z,1.40
2018-04-06T04:36:54.835Z,1.50
2018-04-06T04:39:22.360Z,1.40
2018-04-06T04:41:50.772Z,1.40
2018-04-06T04:44:18.330Z,1.40
2018-04-06T04:46:45.899Z,1.40
2018-04-06T04:49:13.695Z,1.40
2018-04-06T04:51:41.213Z,1.40
2018-04-06T04:54:08.751Z,1.40
2018-04-06T04:56:36.255Z,1.40
2018-04-06T04:59:03.779Z,1.40
2018-04-06T05:01:32.083Z,1.40
2018-04-06T05:03:59.610Z,1.30
2018-04-06T05:06:27.276Z,1.40
2018-04-06T05:08:54.968Z,1.40
2018-04-06T05:11:22.504Z,1.40
2018-04-06T05:13:50.004Z,1.40
2018-04-06T05:16:17.542Z,1.40
2018-04-06T05:18:45.086Z,1.40
2018-04-06T05:21:12.640Z,1.40
2018-04-06T05:23:40.369Z,1.50
2018-04-06T05:26:08.771Z,1.50
2018-04-06T05:28:36.287Z,1.40
2018-04-06T05:31:03.902Z,1.50
2018-04-06T05:33:31.641Z,1.50
2018-04-06T05:35:59.939Z,1.60
2018-04-06T05:38:27.443Z,1.60
2018-04-06T05:40:54.956Z,1.60
2018-04-06T05:43:22.637Z,1.60
2018-04-06T05:45:50.172Z,1.70
2018-04-06T05:48:17.684Z,1.70
2018-04-06T05:50:45.208Z,1.70
2018-04-06T05:53:12.756Z,1.70
2018-04-06T05:55:40.302Z,1.70
2018-04-06T05:58:07.823Z,1.80
2018-04-06T06:00:36.092Z,1.90
2018-04-06T06:03:04.535Z,1.90
2018-04-06T06:05:32.062Z,1.90
2018-04-06T06:08:00.355Z,2.00
2018-04-06T06:10:28.631Z,2.00
2018-04-06T06:12:56.141Z,2.00
2018-04-06T06:15:23.656Z,2.10
2018-04-06T06:17:51.289Z,2.10
2018-04-06T06:20:19.563Z,2.20
2018-04-06T06:22:47.831Z,2.20
2018-04-06T06:25:16.137Z,2.30
2018-04-06T06:27:43.798Z,2.30
2018-04-06T06:30:11.392Z,2.30
2018-04-06T06:32:38.896Z,2.40
2018-04-06T06:35:07.176Z,2.50
2018-04-06T06:37:36.003Z,2.50
2018-04-06T06:40:03.524Z,2.50
2018-04-06T06:42:31.814Z,2.60
2018-04-06T06:44:59.360Z,2.60
2018-04-06T06:47:26.882Z,2.70
2018-04-06T06:49:54.440Z,2.70
2018-04-06T06:52:22.155Z,2.80
2018-04-06T06:54:49.688Z,2.90
2018-04-06T06:57:17.976Z,3.10
2018-04-06T06:59:46.365Z,3.10
2018-04-06T07:02:14.515Z,3.10
2018-04-06T07:04:42.799Z,3.30
2018-04-06T07:07:11.070Z,3.40
2018-04-06T07:09:39.362Z,3.40
2018-04-06T07:12:06.901Z,3.40
2018-04-06T07:14:34.403Z,3.50
2018-04-06T07:17:01.904Z,3.60
2018-04-06T07:19:29.403Z,3.60
2018-04-06T07:21:56.908Z,3.70
2018-04-06T07:24:24.959Z,3.80
2018-04-06T07:26:52.514Z,3.90
2018-04-06T07:29:20.039Z,3.90
2018-04-06T07:31:47.559Z,4.00
2018-04-06T07:34:15.108Z,4.00
2018-04-06T07:36:42.629Z,4.10
2018-04-06T07:39:10.147Z,4.20
2018-04-06T07:41:37.664Z,4.20
2018-04-06T07:44:05.263Z,4.30
2018-04-06T07:46:32.772Z,4.30
2018-04-06T07:49:00.291Z,4.40
2018-04-06T07:51:28.581Z,4.50
2018-04-06T07:53:56.090Z,4.50
2018-04-06T07:56:23.616Z,4.50
2018-04-06T07:58:51.125Z,4.50
2018-04-06T08:01:18.627Z,4.60
2018-04-06T08:03:46.188Z,4.70
2018-04-06T08:06:13.700Z,4.70
2018-04-06T08:08:41.807Z,4.80
2018-04-06T08:11:09.317Z,4.80
2018-04-06T08:13:36.867Z,4.90
2018-04-06T08:16:04.380Z,5.00
2018-04-06T08:18:32.318Z,5.10
2018-04-06T08:21:00.591Z,5.20
2018-04-06T08:23:28.108Z,5.10
2018-04-06T08:25:55.607Z,5.20
2018-04-06T08:28:23.324Z,5.10
2018-04-06T08:30:50.831Z,5.10
2018-04-06T08:33:18.444Z,5.10
2018-04-06T08:35:45.974Z,5.30
2018-04-06T08:38:14.450Z,5.40
2018-04-06T08:40:41.971Z,5.60
2018-04-06T08:43:09.627Z,5.70
2018-04-06T08:45:37.129Z,5.90
2018-04-06T08:48:04.774Z,5.90
2018-04-06T08:50:33.062Z,6.00
2018-04-06T08:53:01.353Z,6.00
2018-04-06T08:55:28.868Z,5.90
2018-04-06T08:57:57.885Z,6.30
2018-04-06T09:00:26.183Z,6.30
2018-04-06T09:02:53.697Z,6.30
2018-04-06T09:05:21.296Z,6.30
2018-04-06T09:07:48.817Z,6.40
2018-04-06T09:10:17.823Z,6.50
2018-04-06T09:12:46.156Z,6.60
2018-04-06T09:15:13.636Z,6.60
2018-04-06T09:17:41.177Z,6.60
2018-04-06T09:20:08.723Z,6.70
2018-04-06T09:22:36.233Z,6.70
2018-04-06T09:25:03.800Z,6.80
2018-04-06T09:27:32.180Z,7.00
2018-04-06T09:30:00.168Z,7.00
2018-04-06T09:32:27.686Z,7.10
2018-04-06T09:34:55.296Z,7.10
2018-04-06T09:37:22.804Z,7.30
2018-04-06T09:39:51.828Z,7.40
2018-04-06T09:42:19.351Z,7.40
2018-04-06T09:44:46.868Z,7.40
2018-04-06T09:47:14.551Z,7.50
2018-04-06T09:49:42.074Z,7.50
2018-04-06T09:52:10.394Z,7.60
2018-04-06T09:54:37.914Z,7.60
2018-04-06T09:57:05.524Z,7.70
2018-04-06T09:59:33.050Z,7.90
2018-04-06T10:02:00.567Z,7.90
2018-04-06T10:04:28.849Z,8.10
2018-04-06T10:06:58.048Z,8.10
2018-04-06T10:09:25.592Z,8.10
2018-04-06T10:11:54.744Z,8.30
2018-04-06T10:14:22.239Z,8.20
2018-04-06T10:16:51.125Z,8.40
2018-04-06T10:19:18.907Z,8.40
2018-04-06T10:21:47.237Z,8.50
2018-04-06T10:24:14.751Z,8.40
2018-04-06T10:26:42.247Z,8.50
2018-04-06T10:29:09.859Z,8.60
2018-04-06T10:31:37.514Z,8.80
2018-04-06T10:34:05.808Z,8.90
2018-04-06T10:36:33.349Z,8.90
2018-04-06T10:39:00.893Z,9.00
2018-04-06T10:41:28.431Z,9.00
2018-04-06T10:43:55.921Z,9.10
2018-04-06T10:46:23.464Z,9.10
2018-04-06T10:48:52.112Z,9.30
2018-04-06T10:51:19.725Z,9.30
2018-04-06T10:53:48.060Z,9.50
2018-04-06T10:56:15.572Z,9.50
2018-04-06T10:58:43.972Z,9.70
2018-04-06T11:01:11.531Z,9.60
2018-04-06T11:03:39.111Z,9.80
2018-04-06T11:06:06.666Z,9.80
2018-04-06T11:08:34.263Z,9.90
2018-04-06T11:11:02.698Z,10.00
2018-04-06T11:13:30.274Z,10.00
2018-04-06T11:15:58.378Z,10.20
2018-04-06T11:18:25.998Z,10.30
2018-04-06T11:20:53.572Z,10.40
2018-04-06T11:23:21.104Z,10.50
2018-04-06T11:25:48.686Z,10.50
2018-04-06T11:28:16.337Z,10.60
2018-04-06T11:30:43.900Z,10.70
2018-04-06T11:33:11.713Z,10.70
2018-04-06T11:35:39.272Z,10.90
2018-04-06T11:38:07.553Z,11.20
2018-04-06T11:40:35.920Z,11.30
2018-04-06T11:43:04.206Z,11.30
2018-04-06T11:45:31.791Z,11.30
2018-04-06T11:47:59.284Z,11.40
2018-04-06T11:50:26.887Z,11.60
2018-04-06T11:52:55.284Z,11.50
2018-04-06T11:55:23.633Z,11.50
2018-04-06T11:57:51.185Z,11.70
2018-04-06T12:00:20.112Z,11.90
2018-04-06T12:02:48.089Z,11.90
2018-04-06T12:05:15.760Z,12.10
2018-04-06T12:07:43.274Z,12.20
2018-04-06T12:10:11.535Z,12.40
2018-04-06T12:12:39.524Z,12.40
2018-04-06T12:15:07.031Z,12.50
2018-04-06T12:17:34.560Z,12.50
2018-04-06T12:20:02.078Z,12.70
2018-04-06T12:22:30.971Z,12.90
2018-04-06T12:24:58.552Z,12.90
2018-04-06T12:27:26.065Z,13.10
2018-04-06T12:29:53.583Z,13.00
2018-04-06T12:32:21.102Z,13.40
2018-04-06T12:34:49.376Z,13.50
2018-04-06T12:37:16.928Z,13.60
2018-04-06T12:39:44.836Z,14.00
2018-04-06T12:42:12.343Z,14.10
2018-04-06T12:44:39.860Z,14.30
2018-04-06T12:47:07.386Z,14.30
2018-04-06T12:49:35.656Z,14.60
2018-04-06T12:52:03.952Z,14.90
2018-04-06T12:54:31.490Z,14.90
2018-04-06T12:56:59.856Z,14.80
2018-04-06T12:59:27.495Z,15.10
2018-04-06T13:01:55.017Z,15.40
2018-04-06T13:04:22.970Z,15.80
2018-04-06T13:06:51.254Z,16.40
2018-04-06T13:09:18.788Z,16.30
2018-04-06T13:11:47.077Z,16.90
2018-04-06T13:14:15.362Z,17.50
2018-04-06T13:16:42.888Z,17.50
2018-04-06T13:19:10.421Z,18.50
2018-04-06T13:21:37.956Z,18.70
2018-04-06T13:24:05.489Z,19.20
2018-04-06T13:26:33.768Z,19.70
2018-04-06T13:29:01.278Z,19.60
2018-04-06T13:31:28.834Z,20.00
2018-04-06T13:33:56.347Z,20.20
2018-04-06T13:36:23.876Z,20.50
2018-04-06T13:38:51.395Z,20.80
2018-04-06T13:41:18.926Z,21.40
2018-04-06T13:43:46.470Z,21.80
2018-04-06T13:46:14.770Z,22.30
2018-04-06T13:48:42.299Z,22.30
2018-04-06T13:51:09.968Z,22.00
2018-04-06T13:53:38.240Z,22.40
2018-04-06T13:56:06.761Z,22.40
2018-04-06T13:58:34.299Z,22.30
2018-04-06T14:01:01.910Z,22.50
2018-04-06T14:03:30.205Z,22.40
2018-04-06T14:05:58.543Z,22.90
2018-04-06T14:08:26.118Z,22.80
2018-04-06T14:10:53.694Z,22.50
2018-04-06T14:13:21.212Z,22.00
2018-04-06T14:15:48.737Z,21.60
2018-04-06T14:18:17.044Z,20.90
2018-04-06T14:20:44.572Z,20.90
2018-04-06T14:23:12.088Z,21.10
2018-04-06T14:25:39.605Z,21.50
2018-04-06T14:28:07.444Z,21.50
2018-04-06T14:30:35.936Z,22.00
2018-04-06T14:33:04.212Z,22.20
2018-04-06T14:35:32.479Z,22.80
2018-04-06T14:38:00.764Z,22.30
2018-04-06T14:40:28.284Z,22.30
2018-04-06T14:42:55.806Z,21.80
2018-04-06T14:45:24.079Z,21.40
2018-04-06T14:47:51.611Z,21.00
2018-04-06T14:50:19.934Z,19.60
2018-04-06T14:52:47.485Z,19.60
2018-04-06T14:55:15.046Z,19.20
2018-04-06T14:57:42.552Z,19.10
2018-04-06T15:00:10.059Z,19.10
2018-04-06T15:02:38.464Z,19.00
2018-04-06T15:05:05.972Z,19.10
2018-04-06T15:07:33.490Z,19.60
2018-04-06T15:10:01.652Z,19.40
2018-04-06T15:12:29.174Z,19.30
2018-04-06T15:14:56.757Z,19.40
2018-04-06T15:17:24.258Z,19.30
2018-04-06T15:19:51.794Z,19.00
2018-04-06T15:22:19.304Z,19.20
2018-04-06T15:24:46.850Z,19.80
2018-04-06T15:27:14.363Z,20.10
2018-04-06T15:29:41.863Z,19.80
2018-04-06T15:32:09.400Z,19.90
2018-04-06T15:34:37.684Z,19.50
2018-04-06T15:37:06.025Z,19.70
2018-04-06T15:39:34.765Z,19.60
2018-04-06T15:42:02.303Z,19.30
2018-04-06T15:44:29.838Z,19.20
2018-04-06T15:46:57.359Z,19.30
2018-04-06T15:49:24.885Z,19.30
2018-04-06T15:51:52.419Z,19.30
2018-04-06T15:54:20.301Z,19.30
2018-04-06T15:56:48.632Z,18.90
2018-04-06T15:59:16.158Z,18.90
2018-04-06T16:01:43.707Z,18.90
2018-04-06T16:04:11.983Z,19.00
2018-04-06T16:06:39.510Z,19.00
2018-04-06T16:09:07.042Z,19.10
2018-04-06T16:11:34.558Z,19.00
2018-04-06T16:14:03.224Z,18.70
2018-04-06T16:16:31.511Z,18.70
2018-04-06T16:18:59.783Z,18.60
2018-04-06T16:21:28.069Z,18.60
2018-04-06T16:23:56.368Z,18.60
2018-04-06T16:26:23.919Z,18.60
2018-04-06T16:28:51.460Z,18.70
2018-04-06T16:31:19.856Z,18.50
2018-04-06T16:33:48.126Z,18.40
2018-04-06T16:36:15.634Z,18.40
2018-04-06T16:38:43.138Z,18.30
2018-04-06T16:41:11.415Z,18.30
2018-04-06T16:43:39.709Z,18.10
2018-04-06T16:46:07.254Z,18.10
2018-04-06T16:48:34.780Z,17.90
2018-04-06T16:51:02.299Z,18.00
2018-04-06T16:53:29.827Z,17.90
2018-04-06T16:55:57.356Z,17.70
2018-04-06T16:58:24.899Z,17.50
2018-04-06T17:00:52.417Z,17.20
2018-04-06T17:03:19.949Z,17.00
2018-04-06T17:05:48.265Z,16.40
2018-04-06T17:08:15.788Z,16.40
2018-04-06T17:10:44.093Z,16.10
2018-04-06T17:13:11.704Z,16.00
2018-04-06T17:15:39.171Z,15.80
2018-04-06T17:18:06.710Z,15.60
2018-04-06T17:20:34.302Z,15.30
2018-04-06T17:23:01.857Z,15.20
2018-04-06T17:25:30.155Z,14.90
2018-04-06T17:27:58.444Z,14.80
2018-04-06T17:30:25.972Z,14.80
2018-04-06T17:32:54.265Z,14.50
2018-04-06T17:35:21.853Z,14.50
2018-04-06T17:37:49.397Z,14.40
2018-04-06T17:40:16.934Z,14.20
2018-04-06T17:42:44.477Z,14.20
2018-04-06T17:45:12.002Z,14.20
2018-04-06T17:47:39.531Z,14.00
2018-04-06T17:50:07.113Z,13.80
2018-04-06T17:52:34.656Z,13.70
2018-04-06T17:55:02.173Z,13.60
2018-04-06T17:57:29.729Z,13.60
2018-04-06T17:59:58.057Z,13.30
2018-04-06T18:02:25.605Z,13.30
2018-04-06T18:04:53.128Z,13.30
2018-04-06T18:07:21.431Z,13.00
2018-04-06T18:09:48.935Z,13.00
2018-04-06T18:12:16.450Z,13.00
2018-04-06T18:14:44.072Z,12.90
2018-04-06T18:17:12.357Z,12.70
2018-04-06T18:19:39.879Z,12.70
2018-04-06T18:22:07.419Z,12.60
2018-04-06T18:24:35.872Z,12.50
2018-04-06T18:27:03.458Z,12.50
2018-04-06T18:29:31.805Z,12.50
2018-04-06T18:31:59.380Z,12.50
2018-04-06T18:34:26.926Z,12.40
2018-04-06T18:36:54.703Z,12.30
2018-04-06T18:39:22.268Z,12.20
2018-04-06T18:41:49.800Z,12.20
2018-04-06T18:44:17.396Z,12.10
2018-04-06T18:46:44.921Z,12.10
2018-04-06T18:49:12.718Z,12.00
2018-04-06T18:51:40.766Z,11.90
2018-04-06T18:54:08.299Z,11.80
2018-04-06T18:56:36.609Z,11.80
2018-04-06T18:59:04.155Z,11.80
2018-04-06T19:01:32.740Z,11.70
2018-04-06T19:04:01.227Z,11.70
2018-04-06T19:06:28.778Z,11.60
2018-04-06T19:08:56.410Z,11.40
2018-04-06T19:11:24.004Z,11.40
2018-04-06T19:13:51.568Z,11.40
2018-04-06T19:16:19.124Z,11.40
2018-04-06T19:18:46.673Z,11.40
2018-04-06T19:21:14.732Z,11.40
2018-04-06T19:23:42.322Z,11.30
2018-04-06T19:26:09.868Z,11.30
2018-04-06T19:28:37.416Z,11.30
2018-04-06T19:31:05.764Z,11.10
2018-04-06T19:33:34.084Z,11.10
2018-04-06T19:36:01.810Z,11.00
2018-04-06T19:38:30.154Z,11.10
2018-04-06T19:40:57.772Z,11.00
2018-04-06T19:43:25.370Z,11.00
2018-04-06T19:45:52.912Z,10.90
2018-04-06T19:48:20.467Z,11.00
2018-04-06T19:50:48.307Z,10.90
2018-04-06T19:53:15.930Z,10.90
2018-04-06T19:55:44.273Z,10.70
2018-04-06T19:58:11.851Z,10.80
2018-04-06T20:00:40.153Z,10.80
2018-04-06T20:03:07.748Z,10.70
2018-04-06T20:05:35.321Z,10.70
2018-04-06T20:08:02.851Z,10.70
2018-04-06T20:10:30.425Z,10.70
2018-04-06T20:12:57.990Z,10.70
2018-04-06T20:15:25.552Z,10.60
2018-04-06T20:17:53.098Z,10.60
2018-04-06T20:20:20.673Z,10.60
2018-04-06T20:22:48.248Z,10.60
2018-04-06T20:25:15.824Z,10.50
2018-04-06T20:27:43.384Z,10.40
2018-04-06T20:30:10.965Z,10.40
2018-04-06T20:32:38.505Z,10.40
2018-04-06T20:35:06.067Z,10.40
2018-04-06T20:37:33.623Z,10.30
2018-04-06T20:40:01.192Z,10.30
2018-04-06T20:42:29.521Z,10.20
2018-04-06T20:44:57.081Z,10.20
2018-04-06T20:47:25.399Z,10.20
2018-04-06T20:49:53.782Z,10.20
2018-04-06T20:52:21.324Z,10.20
2018-04-06T20:54:48.895Z,10.10
2018-04-06T20:57:16.488Z,10.10
2018-04-06T20:59:44.772Z,10.00
2018-04-06T21:02:13.097Z,10.00
2018-04-06T21:04:40.644Z,10.00
2018-04-06T21:07:08.184Z,10.00
2018-04-06T21:09:35.825Z,10.00
2018-04-06T21:12:03.402Z,9.90
2018-04-06T21:14:31.194Z,9.90
2018-04-06T21:16:58.723Z,9.90
2018-04-06T21:19:26.257Z,9.80
2018-04-06T21:21:54.549Z,9.90
2018-04-06T21:24:22.106Z,9.80
2018-04-06T21:26:49.628Z,9.80
2018-04-06T21:29:17.966Z,9.80
2018-04-06T21:31:45.480Z,9.80
2018-04-06T21:34:13.060Z,9.70
2018-04-06T21:36:40.582Z,9.70
2018-04-06T21:39:08.145Z,9.70
2018-04-06T21:41:36.477Z,9.70
2018-04-06T21:44:04.426Z,9.70
2018-04-06T21:46:32.070Z,9.60
2018-04-06T21:48:59.594Z,9.60
2018-04-06T21:51:27.123Z,9.60
2018-04-06T21:53:54.636Z,9.60
2018-04-06T21:56:22.934Z,9.50
2018-04-06T21:58:50.451Z,9.40
2018-04-06T22:01:17.959Z,9.50
2018-04-06T22:03:45.469Z,9.50
2018-04-06T22:06:13.000Z,9.50
2018-04-06T22:08:41.288Z,9.40
2018-04-06T22:11:08.864Z,9.40
2018-04-06T22:13:36.398Z,9.30
2018-04-06T22:16:04.894Z,9.40
2018-04-06T22:18:32.419Z,9.30
2018-04-06T22:20:59.993Z,9.30
2018-04-06T22:23:28.259Z,9.30
2018-04-06T22:25:55.780Z,9.30
2018-04-06T22:28:24.051Z,9.20
2018-04-06T22:30:53.851Z,9.20
2018-04-06T22:33:22.126Z,9.20
2018-04-06T22:35:49.670Z,9.10
2018-04-06T22:38:17.771Z,9.20
2018-04-06T22:40:46.053Z,9.10
2018-04-06T22:43:13.590Z,9.10
2018-04-06T22:45:41.099Z,9.10
2018-04-06T22:48:08.674Z,9.00
2018-04-06T22:50:36.876Z,9.00
2018-04-06T22:53:04.414Z,9.10
2018-04-06T22:55:31.949Z,9.00
2018-04-06T22:58:00.119Z,8.90
2018-04-06T23:00:27.626Z,8.90
2018-04-06T23:02:55.198Z,8.90
2018-04-06T23:05:23.487Z,8.80
2018-04-06T23:07:50.998Z,8.90
2018-04-06T23:10:18.544Z,8.80
2018-04-06T23:12:46.061Z,8.80
2018-04-06T23:15:13.583Z,8.80
2018-04-06T23:17:41.084Z,8.80
2018-04-06T23:20:08.583Z,8.80
2018-04-06T23:22:36.115Z,8.80
2018-04-06T23:25:03.625Z,8.70
2018-04-06T23:27:31.124Z,8.70
2018-04-06T23:29:58.673Z,8.70
2018-04-06T23:32:26.179Z,8.70
2018-04-06T23:34:53.708Z,8.70
2018-04-06T23:37:21.242Z,8.70
2018-04-06T23:39:48.791Z,8.60
2018-04-06T23:42:16.319Z,8.60
2018-04-06T23:44:43.821Z,8.60
2018-04-06T23:47:11.352Z,8.60
2018-04-06T23:49:39.642Z,8.50
2018-04-06T23:52:07.139Z,8.50
2018-04-06T23:54:34.649Z,8.50
2018-04-06T23:57:02.917Z,8.50
2018-04-06T23:59:31.340Z,8.50
